Monday, December 17, 2018, 5:23 AM EST
Back to Local

KMTN, Baltimore / Martin

Location: Middle River, MD, United States Lat: 39.333
Local Time: 5:23 AM EST (10:23 GMT) Lon: -76.417
Time Zone: US/Eastern Elev: 22 ft

Show me the last for .
Show Decoded

2018-12-17 05:00 METAR KMTN 171000Z AUTO 00000KT 10SM CLR 04/03 A2986 RMK AO2 =
2018-12-17 04:42 METAR KMTN 170942Z AUTO 00000KT 10SM SCT033 05/05 A2986 RMK AO2 =
2018-12-17 04:21 METAR KMTN 170921Z AUTO 00000KT 10SM OVC033 05/05 A2987 RMK AO2 =
2018-12-17 04:00 METAR KMTN 170900Z AUTO 00000KT 10SM OVC033 05/05 A2987 RMK AO2 =
2018-12-17 03:42 METAR KMTN 170842Z AUTO 00000KT 10SM OVC033 06/04 A2988 RMK AO2 =
2018-12-17 03:21 METAR KMTN 170821Z AUTO 22003KT 10SM OVC031 06/04 A2988 RMK AO2 =
2018-12-17 03:00 METAR KMTN 170800Z AUTO 00000KT 10SM OVC031 06/04 A2989 RMK AO2 =
2018-12-17 02:42 METAR KMTN 170742Z AUTO 22003KT 10SM OVC031 06/04 A2989 RMK AO2 =
2018-12-17 02:21 METAR KMTN 170721Z AUTO 24004KT 10SM OVC031 05/04 A2990 RMK AO2 =
2018-12-17 02:00 METAR KMTN 170700Z AUTO 22003KT 10SM OVC033 06/04 A2989 RMK AO2 =
2018-12-17 01:42 METAR KMTN 170642Z AUTO 24005KT 10SM OVC033 05/04 A2989 RMK AO2 =
2018-12-17 01:21 METAR KMTN 170621Z AUTO 24004KT 10SM OVC033 05/04 A2989 RMK AO2 =
2018-12-17 01:00 METAR KMTN 170600Z AUTO 24003KT 10SM OVC033 05/04 A2989 RMK AO2 =
2018-12-17 00:42 METAR KMTN 170542Z AUTO 24005KT 10SM OVC033 05/04 A2989 RMK AO2 =
2018-12-17 00:21 METAR KMTN 170521Z AUTO 25004KT 10SM SCT027 OVC033 05/04 A2990 RMK AO2 =
2018-12-17 00:00 METAR KMTN 170500Z AUTO 26005KT 10SM BKN025 BKN034 OVC070 05/04 A2990 RMK AO2 =
2018-12-16 23:42 METAR KMTN 170442Z AUTO 26006KT 10SM OVC021 05/04 A2991 RMK AO2 =
2018-12-16 23:21 METAR KMTN 170421Z AUTO 26005KT 10SM OVC019 05/05 A2992 RMK AO2 =
2018-12-16 23:00 METAR KMTN 170400Z AUTO 27007KT 10SM BKN021 OVC030 05/05 A2992 RMK AO2 =
2018-12-16 22:42 METAR KMTN 170342Z AUTO 28008KT 10SM BKN030 OVC039 05/05 A2992 RMK AO2 =
2018-12-16 22:21 METAR KMTN 170321Z AUTO 29005KT 10SM SCT016 OVC036 05/04 A2992 RMK AO2 =
2018-12-16 21:45 METAR KMTN 170245Z 30007KT 10SM SCT030 OVC042 06/04 A2991 =
2018-12-16 20:54 METAR KMTN 170154Z 29009KT 10SM SCT016 BKN030 OVC042 06/04 A2990 =
2018-12-16 19:45 METAR KMTN 170045Z 31008KT 10SM BKN030 OVC038 06/04 A2990 =
2018-12-16 18:45 METAR KMTN 162345Z 32009KT 10SM BKN015 OVC030 06/04 A2989 =
2018-12-16 17:50 METAR KMTN 162250Z 31009G14KT 10SM SCT015 BKN030 BKN037 06/05 A2988 =
2018-12-16 16:50 METAR KMTN 162150Z 31010G15KT 7SM -DZ BKN013 BKN017 OVC028 06/05 A2987 =
2018-12-16 15:50 METAR KMTN 162050Z 32009G15KT 5SM -DZ BKN014 OVC025 06/06 A2986 =
2018-12-16 14:45 METAR KMTN 161945Z 32009G14KT 7SM -RA BKN014 BKN021 OVC026 06/06 A2983 =
2018-12-16 13:45 METAR KMTN 161845Z 33008KT 6SM BR BKN011 OVC018 07/07 A2982 =
2018-12-16 12:45 METAR KMTN 161745Z 33006KT 2 1/2SM -RA BR BKN007 OVC011 07/07 A2983 =
2018-12-16 11:45 METAR KMTN 161645Z 34006KT 2SM RA BR OVC007 07/07 A2985 =
2018-12-16 10:45 METAR KMTN 161545Z 34004KT 2 1/2SM -RA BR OVC005 07/07 A2988 =
2018-12-16 10:01 METAR KMTN 161501Z 36005KT 3SM -RA BR OVC005 07/07 A2990 RMK RAB1456DZE55 =
2018-12-16 09:45 METAR KMTN 161445Z 34005KT 1 1/2SM -DZ BR OVC005 07/07 A2991 =
2018-12-16 08:45 METAR KMTN 161345Z 01004KT 1 3/4SM -DZ BR OVC007 07/07 A2991 =
2018-12-16 07:54 METAR KMTN 161254Z 02009KT 2SM -DZ BR OVC007 07/07 A2990 =
2018-12-16 07:24 METAR KMTN 161224Z 03007KT 2SM BR OVC007 07/07 A2990 =
2018-12-16 06:45 METAR KMTN 161145Z 04009KT 5SM BR OVC009 07/07 A2990 =
2018-12-16 05:45 METAR KMTN 161045Z 05012KT 4SM -DZ BR OVC007 07/07 A2990 RMK FIRST =
2018-12-16 05:30 METAR KMTN 161030Z AUTO 03006KT 4SM DZ OVC007 07/07 A2990 RMK AO2 =

Support USWX by starting your Amazon purchase here.